Time;durP1;ratioP1;P1;durP2;ratioP2;P2;SDS_P1;SDS_P2;PMS_P1;PMS_P2;Temp;Humidity;BMP_temperature;BMP_pressure;BME280_temperature;BME280_humidity;BME280_pressure;Samples;Min_cycle;Max_cycle;Signal;HPM_P1;HPM_P2
2021/09/06 00:01:42;;;;;;;;;;;;;;;22.32;30.61;98506.66;4986035;28;635;-79
2021/09/06 00:04:10;;;;;;;;;;;;;;;22.27;30.70;98501.50;5001929;28;741;-79
2021/09/06 00:06:37;;;;;;;;;;;;;;;22.14;30.58;98506.25;5001736;28;1124;-79
2021/09/06 00:09:03;;;;;;;;;;;;;;;22.19;30.54;98508.59;5001987;28;895;-79
2021/09/06 00:11:28;;;;;;;;;;;;;;;22.38;30.26;98503.31;5002189;28;892;-79
2021/09/06 00:13:54;;;;;;;;;;;;;;;22.36;30.32;98501.72;5002249;28;851;-79
2021/09/06 00:16:19;;;;;;;;;;;;;;;22.50;30.02;98505.50;5002233;28;688;-79
2021/09/06 00:18:45;;;;;;;;;;;;;;;22.56;30.12;98506.56;4984769;28;1914;-79
2021/09/06 00:21:10;;;;;;;;;;;;;;;22.49;30.46;98515.25;4985619;28;739;-79
2021/09/06 00:23:35;;;;;;;;;;;;;;;22.44;30.56;98507.25;4984458;28;848;-79
2021/09/06 00:26:03;;;;;;;;;;;;;;;22.43;30.36;98511.31;4985338;28;903;-79
2021/09/06 00:28:28;;;;;;;;;;;;;;;22.32;30.43;98506.66;4984035;28;831;-79
2021/09/06 00:30:54;;;;;;;;;;;;;;;22.24;30.86;98510.09;5001900;28;707;-79
2021/09/06 00:33:19;;;;;;;;;;;;;;;22.34;30.37;98511.91;4985029;28;1137;-79
2021/09/06 00:35:46;;;;;;;;;;;;;;;22.42;30.17;98516.19;5001592;28;959;-79
2021/09/06 00:38:12;;;;;;;;;;;;;;;22.36;30.20;98524.41;4984657;28;1977;-79
2021/09/06 00:40:38;;;;;;;;;;;;;;;22.23;30.45;98514.19;4985342;28;1229;-79
2021/09/06 00:43:03;;;;;;;;;;;;;;;22.28;30.27;98516.50;4968204;28;1184;-79
2021/09/06 00:45:29;;;;;;;;;;;;;;;22.39;29.99;98516.28;5001803;28;704;-79
2021/09/06 00:47:54;;;;;;;;;;;;;;;22.59;29.88;98519.88;5001803;28;635;-79
2021/09/06 00:50:20;;;;;;;;;;;;;;;22.22;30.32;98518.22;5001531;28;652;-79
2021/09/06 00:52:46;;;;;;;;;;;;;;;22.26;30.27;98516.91;4967938;28;1126;-79
2021/09/06 00:55:12;;;;;;;;;;;;;;;22.36;29.97;98524.41;5001217;28;949;-79
2021/09/06 00:57:37;;;;;;;;;;;;;;;22.42;29.65;98516.19;5001623;28;1910;-79
2021/09/06 01:00:08;;;;;;;;;;;;;;;22.33;30.06;98513.16;5001486;28;662;-79
2021/09/06 01:02:33;;;;;;;;;;;;;;;22.40;29.79;98517.88;4984793;28;1144;-80
2021/09/06 01:04:59;;;;;;;;;;;;;;;22.17;29.87;98524.41;5001243;28;1105;-79
2021/09/06 01:07:57;;;;;;;;;;;;;;;22.31;29.76;98522.06;4968724;28;1016;-78
2021/09/06 01:10:41;;;;;;;;;;;;;;;22.24;29.78;98533.59;5001241;28;908;-78
2021/09/06 01:13:31;;;;;;;;;;;;;;;22.27;30.03;98535.53;4984202;28;1262;-79
2021/09/06 01:15:56;;;;;;;;;;;;;;;22.34;29.72;98532.56;4984947;28;1148;-79
2021/09/06 01:18:24;;;;;;;;;;;;;;;22.52;29.28;98531.38;4972639;28;1969;-79
2021/09/06 01:20:51;;;;;;;;;;;;;;;22.45;29.35;98537.19;4972848;28;1187;-79
2021/09/06 01:23:21;;;;;;;;;;;;;;;22.35;29.30;98533.34;4988100;28;1313;-79
2021/09/06 01:26:05;;;;;;;;;;;;;;;22.27;29.76;98543.22;5004994;28;922;-78
2021/09/06 01:28:31;;;;;;;;;;;;;;;22.51;29.40;98535.44;4988248;28;1176;-79
2021/09/06 01:30:58;;;;;;;;;;;;;;;22.36;29.50;98535.75;4972812;28;1156;-79
2021/09/06 01:33:24;;;;;;;;;;;;;;;22.30;29.85;98534.66;4987885;28;1257;-79
2021/09/06 01:35:50;;;;;;;;;;;;;;;22.28;29.52;98528.66;4972479;28;1148;-78
2021/09/06 01:38:17;;;;;;;;;;;;;;;22.43;29.47;98533.97;4987609;28;1890;-79
2021/09/06 01:40:42;;;;;;;;;;;;;;;22.27;29.66;98527.03;4988289;28;1121;-79
2021/09/06 01:43:12;;;;;;;;;;;;;;;22.38;29.30;98531.66;4972188;28;1148;-79
2021/09/06 01:45:38;;;;;;;;;;;;;;;22.52;29.10;98532.16;4972041;28;1374;-79
2021/09/06 01:48:04;;;;;;;;;;;;;;;22.31;29.27;98533.41;4988352;28;1264;-79
2021/09/06 01:50:34;;;;;;;;;;;;;;;22.27;29.30;98529.84;4988009;28;1471;-79
2021/09/06 01:53:00;;;;;;;;;;;;;;;22.36;29.25;98535.75;4987557;28;958;-78
2021/09/06 01:55:25;;;;;;;;;;;;;;;22.35;29.39;98531.31;4987806;28;1133;-78
2021/09/06 01:57:58;;;;;;;;;;;;;;;22.18;29.65;98541.00;4987850;28;1957;-78
2021/09/06 02:00:23;;;;;;;;;;;;;;;22.39;29.12;98527.63;4987962;28;1379;-79
2021/09/06 02:02:50;;;;;;;;;;;;;;;22.39;29.52;98533.28;4987991;28;1345;-79
2021/09/06 02:05:24;;;;;;;;;;;;;;;22.36;29.31;98527.25;4980424;28;1079;-79
2021/09/06 02:07:52;;;;;;;;;;;;;;;22.32;29.39;98534.22;4968522;28;1305;-79
2021/09/06 02:10:19;;;;;;;;;;;;;;;22.43;29.05;98533.97;4967985;28;1141;-79
2021/09/06 02:12:45;;;;;;;;;;;;;;;22.40;29.18;98535.69;4968114;28;1156;-79
2021/09/06 02:15:21;;;;;;;;;;;;;;;22.32;29.18;98543.50;4967982;28;1192;-79
2021/09/06 02:17:48;;;;;;;;;;;;;;;22.41;29.18;98530.81;4967676;28;1894;-79
2021/09/06 02:20:14;;;;;;;;;;;;;;;22.38;28.99;98532.47;4967848;28;709;-79
2021/09/06 02:22:43;;;;;;;;;;;;;;;22.23;29.36;98537.66;4968429;28;1275;-79
2021/09/06 02:25:08;;;;;;;;;;;;;;;22.46;28.65;98539.59;4967558;28;1177;-79
2021/09/06 02:27:35;;;;;;;;;;;;;;;22.22;29.08;98540.91;4967181;28;1161;-78
2021/09/06 02:30:08;;;;;;;;;;;;;;;22.34;29.17;98534.59;4952846;28;1140;-78
2021/09/06 02:32:35;;;;;;;;;;;;;;;22.42;28.67;98536.03;4952429;28;1290;-79
2021/09/06 02:35:19;;;;;;;;;;;;;;;22.32;29.17;98529.34;4984677;28;651;-79
2021/09/06 02:37:45;;;;;;;;;;;;;;;22.20;29.11;98530.00;4967977;28;1899;-79
2021/09/06 02:40:15;;;;;;;;;;;;;;;22.21;29.46;98528.78;4967680;28;1310;-79
2021/09/06 02:42:42;;;;;;;;;;;;;;;22.26;28.97;98528.25;4952005;28;1347;-79
2021/09/06 02:45:07;;;;;;;;;;;;;;;22.31;29.18;98521.28;4951053;28;884;-79
2021/09/06 02:47:33;;;;;;;;;;;;;;;22.34;28.90;98512.72;4984622;28;668;-79
2021/09/06 02:50:02;;;;;;;;;;;;;;;22.38;28.96;98511.81;4951857;28;1141;-80
2021/09/06 02:52:29;;;;;;;;;;;;;;;22.19;29.03;98513.44;4967598;28;1185;-79
2021/09/06 02:54:55;;;;;;;;;;;;;;;22.21;29.21;98514.59;4951565;28;1331;-79
2021/09/06 02:57:20;;;;;;;;;;;;;;;22.08;29.23;98533.47;4951484;28;1146;-79
2021/09/06 02:59:48;;;;;;;;;;;;;;;22.23;28.79;98526.31;4967121;28;1977;-79
2021/09/06 03:02:14;;;;;;;;;;;;;;;22.25;29.15;98518.16;4952049;28;1314;-79
2021/09/06 03:04:53;;;;;;;;;;;;;;;22.24;29.04;98539.25;4968193;28;1575;-79
2021/09/06 03:07:18;;;;;;;;;;;;;;;22.23;28.83;98537.66;4970229;28;923;-79
2021/09/06 03:09:44;;;;;;;;;;;;;;;22.23;28.97;98549.00;4987006;28;1439;-79
2021/09/06 03:12:09;;;;;;;;;;;;;;;22.32;28.66;98535.00;4986324;28;955;-78
2021/09/06 03:14:40;;;;;;;;;;;;;;;22.29;28.74;98540.78;4970678;28;1293;-79
2021/09/06 03:17:06;;;;;;;;;;;;;;;22.12;29.06;98548.38;4991368;28;1331;-79
2021/09/06 03:19:36;;;;;;;;;;;;;;;22.13;29.15;98543.53;4993977;28;1934;-79
2021/09/06 03:22:01;;;;;;;;;;;;;;;22.34;28.80;98548.78;4993004;28;1286;-79
2021/09/06 03:24:27;;;;;;;;;;;;;;;22.29;28.47;98555.75;4977622;28;1211;-79
2021/09/06 03:26:53;;;;;;;;;;;;;;;22.30;28.71;98554.50;4983218;28;1325;-78
2021/09/06 03:29:19;;;;;;;;;;;;;;;22.05;28.85;98554.19;5002435;28;1002;-78
2021/09/06 03:31:46;;;;;;;;;;;;;;;22.19;28.58;98565.28;4970453;28;950;-79
2021/09/06 03:34:12;;;;;;;;;;;;;;;22.11;28.81;98560.97;4978255;28;1370;-79
2021/09/06 03:36:38;;;;;;;;;;;;;;;22.31;28.60;98561.78;4977159;28;1159;-79
2021/09/06 03:39:04;;;;;;;;;;;;;;;22.22;28.55;98561.53;4977186;28;1968;-79
2021/09/06 03:41:33;;;;;;;;;;;;;;;22.18;28.69;98563.69;4974686;28;1187;-79
2021/09/06 03:44:00;;;;;;;;;;;;;;;22.19;28.59;98568.09;4974331;28;1390;-78
2021/09/06 03:46:26;;;;;;;;;;;;;;;22.20;28.83;98560.41;4958255;28;1320;-78
2021/09/06 03:48:55;;;;;;;;;;;;;;;22.19;28.56;98559.59;4991055;28;1293;-78
2021/09/06 03:51:21;;;;;;;;;;;;;;;22.26;28.50;98567.94;4985058;28;1197;-79
2021/09/06 03:53:47;;;;;;;;;;;;;;;22.09;28.83;98561.38;4985437;28;1373;-79
2021/09/06 03:56:15;;;;;;;;;;;;;;;22.11;28.78;98563.81;4985471;28;1243;-78
2021/09/06 03:58:42;;;;;;;;;;;;;;;22.21;28.70;98557.13;4984771;28;1903;-78
2021/09/06 04:01:07;;;;;;;;;;;;;;;22.04;29.03;98552.59;4985869;28;1314;-78
2021/09/06 04:03:33;;;;;;;;;;;;;;;22.16;28.77;98566.13;4985310;28;1385;-78
2021/09/06 04:06:01;;;;;;;;;;;;;;;22.23;28.54;98566.00;4985905;28;1285;-78
2021/09/06 04:08:27;;;;;;;;;;;;;;;22.09;28.99;98563.41;4985279;28;1148;-78
2021/09/06 04:10:53;;;;;;;;;;;;;;;22.14;28.63;98568.59;4985222;28;1303;-79
2021/09/06 04:13:22;;;;;;;;;;;;;;;22.11;28.96;98563.81;4968994;28;1172;-79
2021/09/06 04:15:51;;;;;;;;;;;;;;;22.22;28.54;98570.03;4969918;28;1308;-79
2021/09/06 04:18:19;;;;;;;;;;;;;;;22.27;28.53;98571.56;4985261;28;1902;-78
2021/09/06 04:20:45;;;;;;;;;;;;;;;22.30;28.78;98582.84;4985337;28;1330;-78
2021/09/06 04:23:11;;;;;;;;;;;;;;;22.13;28.87;98584.03;4985019;28;1142;-79
2021/09/06 04:25:36;;;;;;;;;;;;;;;22.25;28.91;98594.69;4985560;28;1326;-79
2021/09/06 04:28:02;;;;;;;;;;;;;;;22.27;28.60;98595.06;4968567;28;1254;-79
2021/09/06 04:30:28;;;;;;;;;;;;;;;22.09;29.07;98594.59;4985091;28;1224;-79
2021/09/06 04:32:53;;;;;;;;;;;;;;;22.20;28.76;98594.41;4985004;28;1372;-78
2021/09/06 04:35:19;;;;;;;;;;;;;;;22.33;28.61;98593.34;4984634;28;659;-79
2021/09/06 04:37:50;;;;;;;;;;;;;;;22.17;28.69;98596.06;5001733;28;1894;-79
2021/09/06 04:40:20;;;;;;;;;;;;;;;22.00;29.17;98597.19;4985057;28;1349;-79
2021/09/06 04:42:50;;;;;;;;;;;;;;;22.24;28.50;98595.94;4969065;28;1149;-79
2021/09/06 04:45:17;;;;;;;;;;;;;;;22.23;28.74;98610.56;4984308;28;1212;-78
2021/09/06 04:47:43;;;;;;;;;;;;;;;22.15;28.81;98604.22;4984352;28;1200;-79
2021/09/06 04:50:10;;;;;;;;;;;;;;;22.18;28.69;98606.19;4984470;28;1171;-79
2021/09/06 04:52:37;;;;;;;;;;;;;;;22.28;28.31;98605.19;4984017;28;1160;-78
2021/09/06 04:55:06;;;;;;;;;;;;;;;22.08;28.90;98604.34;4968796;28;1212;-79
2021/09/06 04:57:32;;;;;;;;;;;;;;;22.10;28.62;98607.53;4984560;28;1978;-78
2021/09/06 04:59:58;;;;;;;;;;;;;;;22.14;28.85;98616.78;5000678;28;822;-79
2021/09/06 05:02:24;;;;;;;;;;;;;;;22.26;28.34;98618.97;4984452;28;1300;-77
2021/09/06 05:04:49;;;;;;;;;;;;;;;22.12;28.85;98622.06;4983822;28;1189;-79
2021/09/06 05:07:15;;;;;;;;;;;;;;;22.19;28.60;98621.97;4992041;28;1293;-79
2021/09/06 05:09:41;;;;;;;;;;;;;;;22.19;28.72;98621.97;4961181;28;1341;-79
2021/09/06 05:12:06;;;;;;;;;;;;;;;22.28;28.76;98619.34;4991850;28;1176;-79
2021/09/06 05:14:36;;;;;;;;;;;;;;;22.31;28.73;98617.66;4991410;28;1174;-78
2021/09/06 05:17:03;;;;;;;;;;;;;;;22.25;28.96;98620.22;4984920;28;1200;-79
2021/09/06 05:19:29;;;;;;;;;;;;;;;22.25;28.64;98623.06;4984214;28;1919;-77
2021/09/06 05:21:55;;;;;;;;;;;;;;;22.07;29.13;98622.53;4968208;28;1125;-78
2021/09/06 05:24:21;;;;;;;;;;;;;;;22.15;29.04;98626.88;4984192;28;1360;-78
2021/09/06 05:26:46;;;;;;;;;;;;;;;22.20;28.78;98642.59;4983968;28;1211;-78
2021/09/06 05:29:12;;;;;;;;;;;;;;;22.15;28.88;98628.94;4983537;28;1230;-78
2021/09/06 05:31:38;;;;;;;;;;;;;;;22.10;29.00;98628.19;4984785;28;919;-78
2021/09/06 05:34:03;;;;;;;;;;;;;;;22.21;28.81;98625.16;5000821;28;631;-79
2021/09/06 05:36:29;;;;;;;;;;;;;;;22.25;28.83;98631.56;4984053;28;902;-78
2021/09/06 05:38:57;;;;;;;;;;;;;;;22.23;28.77;98633.25;4968194;28;1903;-78
2021/09/06 05:41:23;;;;;;;;;;;;;;;22.21;28.89;98627.97;5000793;28;1089;-79
2021/09/06 05:43:50;;;;;;;;;;;;;;;22.30;28.71;98628.22;4983649;28;1148;-78
2021/09/06 05:46:18;;;;;;;;;;;;;;;22.34;29.13;98622.50;4983820;28;1152;-78
2021/09/06 05:48:44;;;;;;;;;;;;;;;22.45;28.69;98622.28;4968072;28;1129;-79
2021/09/06 05:51:11;;;;;;;;;;;;;;;22.29;29.21;98629.47;4984403;28;1295;-79
2021/09/06 05:54:03;;;;;;;;;;;;;;;22.28;29.26;98636.38;4985469;28;1096;-79
2021/09/06 05:56:30;;;;;;;;;;;;;;;22.20;29.31;98632.06;4983959;28;1126;-79
2021/09/06 05:58:58;;;;;;;;;;;;;;;22.20;29.18;98634.09;4968028;28;1910;-79
2021/09/06 06:01:27;;;;;;;;;;;;;;;22.23;29.30;98639.72;4953397;28;1120;-79
2021/09/06 06:03:53;;;;;;;;;;;;;;;22.23;28.98;98631.19;4971129;28;1300;-79
2021/09/06 06:06:34;;;;;;;;;;;;;;;22.30;29.09;98639.56;4987765;28;1216;-78
2021/09/06 06:09:02;;;;;;;;;;;;;;;22.23;29.45;98642.53;4987380;28;1176;-80
2021/09/06 06:11:28;;;;;;;;;;;;;;;22.12;29.34;98644.75;4971665;28;1378;-79
2021/09/06 06:13:54;;;;;;;;;;;;;;;22.33;29.00;98644.38;4971070;28;1188;-79
2021/09/06 06:16:20;;;;;;;;;;;;;;;22.33;29.23;98644.38;4987556;28;1216;-78
2021/09/06 06:18:46;;;;;;;;;;;;;;;22.27;29.60;98651.75;4987459;28;1914;-78
2021/09/06 06:21:14;;;;;;;;;;;;;;;22.02;29.57;98648.53;4987633;28;1254;-77
2021/09/06 06:24:01;;;;;;;;;;;;;;;22.13;29.71;98652.03;4974039;28;1266;-79
2021/09/06 06:26:34;;;;;;;;;;;;;;;22.23;29.27;98656.72;4987546;28;1176;-78
2021/09/06 06:29:03;;;;;;;;;;;;;;;22.26;29.27;98655.81;4986863;28;1275;-79
2021/09/06 06:31:29;;;;;;;;;;;;;;;22.40;28.99;98656.81;4987049;28;1267;-79
2021/09/06 06:33:56;;;;;;;;;;;;;;;22.47;29.05;98662.31;4987318;28;1342;-78
2021/09/06 06:36:22;;;;;;;;;;;;;;;22.30;29.14;98659.41;4970685;28;1261;-77
2021/09/06 06:38:49;;;;;;;;;;;;;;;22.33;29.46;98661.38;4986412;28;1986;-78
2021/09/06 06:41:17;;;;;;;;;;;;;;;22.35;29.11;98653.22;4986651;28;1483;-78
2021/09/06 06:43:48;;;;;;;;;;;;;;;22.55;28.96;98672.31;4986618;28;1291;-79
2021/09/06 06:46:17;;;;;;;;;;;;;;;22.43;29.11;98664.41;4987177;28;1184;-77
2021/09/06 06:48:43;;;;;;;;;;;;;;;22.38;29.59;98660.06;4970650;28;1332;-78
2021/09/06 06:51:22;;;;;;;;;;;;;;;22.25;29.62;98665.56;4970484;28;1284;-78
2021/09/06 06:53:49;;;;;;;;;;;;;;;22.36;29.63;98671.84;4986661;28;1160;-78
2021/09/06 06:56:18;;;;;;;;;;;;;;;22.55;29.11;98667.44;4986710;28;1116;-78
2021/09/06 06:58:54;;;;;;;;;;;;;;;22.41;29.21;98672.56;4985894;28;1914;-77
2021/09/06 07:01:20;;;;;;;;;;;;;;;22.36;29.33;98676.72;4986736;28;1141;-78
2021/09/06 07:03:50;;;;;;;;;;;;;;;22.74;28.69;98674.34;4970321;28;705;-77
2021/09/06 07:06:17;;;;;;;;;;;;;;;22.50;29.19;98675.66;4970397;28;1165;-79
2021/09/06 07:08:43;;;;;;;;;;;;;;;22.34;29.20;98668.66;4985694;28;1271;-78
2021/09/06 07:11:08;;;;;;;;;;;;;;;22.44;29.34;98666.03;5003019;28;1124;-79
2021/09/06 07:13:35;;;;;;;;;;;;;;;22.50;29.09;98675.66;4985303;28;1180;-78
2021/09/06 07:16:02;;;;;;;;;;;;;;;22.33;29.34;98681.22;4985730;28;1180;-79
2021/09/06 07:18:28;;;;;;;;;;;;;;;22.40;29.43;98676.66;4969787;28;1973;-77
2021/09/06 07:20:53;;;;;;;;;;;;;;;22.29;29.65;98683.31;4985835;28;748;-79
2021/09/06 07:23:20;;;;;;;;;;;;;;;22.35;29.54;98680.78;4986041;28;1164;-78
2021/09/06 07:25:45;;;;;;;;;;;;;;;22.32;29.57;98682.44;4986083;28;1226;-78
2021/09/06 07:28:12;;;;;;;;;;;;;;;22.46;29.33;98681.38;4985810;28;1232;-77
2021/09/06 07:30:38;;;;;;;;;;;;;;;22.23;29.71;98681.44;4985906;28;1164;-78
2021/09/06 07:33:06;;;;;;;;;;;;;;;22.47;29.16;98693.50;4986226;28;1136;-77
2021/09/06 07:35:33;;;;;;;;;;;;;;;22.42;29.41;98686.31;4970587;28;1204;-78
2021/09/06 07:37:59;;;;;;;;;;;;;;;22.27;29.66;98697.13;4969726;28;1965;-79
2021/09/06 07:40:27;;;;;;;;;;;;;;;22.33;29.53;98695.41;4985944;28;1514;-78
2021/09/06 07:42:53;;;;;;;;;;;;;;;22.53;29.58;98698.25;4985626;28;1138;-79
2021/09/06 07:45:19;;;;;;;;;;;;;;;22.45;29.30;98701.66;4969656;28;1271;-77
2021/09/06 07:47:48;;;;;;;;;;;;;;;22.41;29.29;98695.25;4970292;28;905;-78
2021/09/06 07:50:20;;;;;;;;;;;;;;;22.26;29.80;98695.50;4985799;28;1240;-78
2021/09/06 07:52:46;;;;;;;;;;;;;;;22.47;29.18;98694.31;4969473;28;1359;-79
2021/09/06 07:55:12;;;;;;;;;;;;;;;22.62;29.21;98700.50;4969361;28;1293;-79
2021/09/06 07:57:38;;;;;;;;;;;;;;;22.25;29.46;98699.59;4969127;28;1189;-79
2021/09/06 08:00:04;;;;;;;;;;;;;;;22.33;29.45;98695.41;4985438;28;1311;-79
2021/09/06 08:02:42;;;;;;;;;;;;;;;22.45;29.46;98713.00;4987330;28;621;-78
2021/09/06 08:05:08;;;;;;;;;;;;;;;22.62;29.07;98703.34;4985674;28;1302;-79
2021/09/06 08:07:34;;;;;;;;;;;;;;;22.47;29.54;98699.97;4986017;28;1298;-79
2021/09/06 08:10:01;;;;;;;;;;;;;;;22.44;29.66;98711.41;4985103;28;1187;-79
2021/09/06 08:12:27;;;;;;;;;;;;;;;22.21;30.04;98698.84;4969246;28;1227;-78
2021/09/06 08:14:53;;;;;;;;;;;;;;;22.50;29.46;98704.00;4984843;28;1156;-79
2021/09/06 08:17:18;;;;;;;;;;;;;;;22.72;29.09;98699.50;5002209;28;675;-77
2021/09/06 08:19:44;;;;;;;;;;;;;;;22.50;29.33;98704.00;4969092;28;1914;-78
2021/09/06 08:22:10;;;;;;;;;;;;;;;22.32;29.85;98713.63;4985060;28;1248;-79
2021/09/06 08:24:37;;;;;;;;;;;;;;;22.35;29.63;98706.31;5001355;28;1021;-79
2021/09/06 08:27:02;;;;;;;;;;;;;;;22.53;29.16;98709.59;4984396;28;1172;-79
2021/09/06 08:29:28;;;;;;;;;;;;;;;22.46;29.45;98704.06;4969033;28;1341;-78
2021/09/06 08:31:53;;;;;;;;;;;;;;;22.30;29.60;98704.75;4985533;28;1117;-79
2021/09/06 08:34:19;;;;;;;;;;;;;;;22.42;29.34;98708.19;4952849;28;1310;-80
2021/09/06 08:36:46;;;;;;;;;;;;;;;22.45;29.21;98710.19;4985383;28;1196;-78
2021/09/06 08:39:12;;;;;;;;;;;;;;;20.68;29.34;98424.78;4984450;28;1902;-78
2021/09/06 08:41:38;;;;;;;;;;;;;;;22.50;29.14;98710.47;4985139;28;1283;-79
2021/09/06 08:44:03;;;;;;;;;;;;;;;22.60;29.24;98694.50;4968941;28;1166;-79
2021/09/06 08:46:29;;;;;;;;;;;;;;;22.44;29.15;98706.53;4969061;28;1296;-79
2021/09/06 08:48:55;;;;;;;;;;;;;;;22.61;29.22;98693.25;4985226;28;1181;-79
2021/09/06 08:51:23;;;;;;;;;;;;;;;22.49;29.14;98702.41;4985380;28;1171;-79
2021/09/06 08:53:49;;;;;;;;;;;;;;;22.61;28.90;98701.75;4984516;28;1408;-79
2021/09/06 08:56:15;;;;;;;;;;;;;;;22.38;29.60;98698.94;4968795;28;910;-79
2021/09/06 08:58:41;;;;;;;;;;;;;;;22.50;29.38;98692.66;4984664;28;1977;-79
2021/09/06 09:01:07;;;;;;;;;;;;;;;22.40;29.28;98705.00;4985254;28;1220;-79
2021/09/06 09:03:42;;;;;;;;;;;;;;;22.51;29.11;98702.75;4969236;28;1346;-78
2021/09/06 09:06:36;;;;;;;;;;;;;;;22.42;29.52;98702.53;4990588;28;1081;-79
2021/09/06 09:09:32;;;;;;;;;;;;;;;22.39;29.40;98706.25;4971187;28;1251;-79
2021/09/06 09:12:16;;;;;;;;;;;;;;;22.40;29.63;98700.13;4984586;28;1302;-79
2021/09/06 09:14:54;;;;;;;;;;;;;;;22.52;29.32;98698.69;4984506;28;1187;-79
2021/09/06 09:17:29;;;;;;;;;;;;;;;22.58;29.31;98688.44;4969986;28;1227;-78
2021/09/06 09:20:20;;;;;;;;;;;;;;;22.51;29.19;98694.25;4983409;28;942;-79
2021/09/06 09:23:13;;;;;;;;;;;;;;;22.57;29.39;98698.19;4971911;28;1249;-79
2021/09/06 09:25:44;;;;;;;;;;;;;;;22.54;29.20;98693.41;4984748;28;1180;-80
2021/09/06 09:28:25;;;;;;;;;;;;;;;22.54;29.06;98687.72;5000886;28;814;-79
2021/09/06 09:31:18;;;;;;;;;;;;;;;22.58;29.42;98699.78;5000732;28;826;-79
2021/09/06 09:33:51;;;;;;;;;;;;;;;22.25;30.07;98688.25;4984651;28;1307;-79
2021/09/06 09:36:30;;;;;;;;;;;;;;;22.60;29.35;98692.44;4984731;28;1192;-79
2021/09/06 09:39:15;;;;;;;;;;;;;;;22.40;29.68;98693.66;5004704;28;1879;-79
2021/09/06 09:41:42;;;;;;;;;;;;;;;22.47;29.75;98694.31;4988207;28;903;-79
2021/09/06 09:44:08;;;;;;;;;;;;;;;22.48;29.46;98678.09;4987145;28;872;-79
2021/09/06 09:46:59;;;;;;;;;;;;;;;22.41;29.65;98683.91;5005251;28;819;-79
2021/09/06 09:49:26;;;;;;;;;;;;;;;22.34;29.99;98691.31;5004911;28;645;-79
2021/09/06 09:51:52;;;;;;;;;;;;;;;22.45;29.79;98684.66;4987520;28;854;-79
2021/09/06 09:54:17;;;;;;;;;;;;;;;22.58;29.62;98688.44;4987312;28;711;-79
2021/09/06 09:56:43;;;;;;;;;;;;;;;22.53;29.75;98691.78;4971792;28;871;-79
2021/09/06 09:59:10;;;;;;;;;;;;;;;22.75;29.04;98678.78;5004437;28;1890;-79
2021/09/06 10:01:54;;;;;;;;;;;;;;;22.45;29.58;98687.50;4987978;28;850;-78
2021/09/06 10:04:21;;;;;;;;;;;;;;;22.35;29.71;98686.47;5004236;28;859;-79
2021/09/06 10:06:47;;;;;;;;;;;;;;;22.57;29.65;98695.34;4988006;28;1114;-79
2021/09/06 10:09:16;;;;;;;;;;;;;;;22.57;29.78;98692.50;5004565;28;687;-79
2021/09/06 10:11:42;;;;;;;;;;;;;;;22.70;29.52;98684.97;5004769;28;647;-79
2021/09/06 10:14:11;;;;;;;;;;;;;;;22.59;29.38;98690.06;5019456;28;1322;-79
2021/09/06 10:16:39;;;;;;;;;;;;;;;22.66;29.53;98672.88;5007418;28;791;-80
2021/09/06 10:19:05;;;;;;;;;;;;;;;22.74;29.18;98691.38;5006912;28;1969;-79
2021/09/06 10:21:31;;;;;;;;;;;;;;;22.70;29.35;98687.00;5006529;28;940;-79
2021/09/06 10:23:57;;;;;;;;;;;;;;;22.66;29.35;98684.22;5006679;28;1210;-79
2021/09/06 10:26:34;;;;;;;;;;;;;;;22.62;29.31;98703.34;5023942;28;933;-79
2021/09/06 10:28:59;;;;;;;;;;;;;;;22.50;29.71;98693.47;5023948;28;949;-79
2021/09/06 10:31:25;;;;;;;;;;;;;;;22.64;29.63;98703.72;5006958;28;1218;-79
2021/09/06 10:33:57;;;;;;;;;;;;;;;22.51;29.52;98694.25;5023553;28;659;-79
2021/09/06 10:36:23;;;;;;;;;;;;;;;22.64;29.58;98698.06;5007258;28;628;-79
2021/09/06 10:38:52;;;;;;;;;;;;;;;22.73;29.17;98689.75;5023147;28;1910;-78
2021/09/06 10:41:19;;;;;;;;;;;;;;;22.72;29.30;98702.34;5023658;28;857;-79
2021/09/06 10:43:48;;;;;;;;;;;;;;;22.38;29.69;98708.25;5006319;28;1012;-79
2021/09/06 10:46:13;;;;;;;;;;;;;;;22.57;29.55;98703.84;5024138;28;639;-79
2021/09/06 10:48:41;;;;;;;;;;;;;;;22.61;29.50;98710.25;4989404;28;842;-79
2021/09/06 10:51:09;;;;;;;;;;;;;;;22.65;29.35;98701.69;5005750;28;938;-79
2021/09/06 10:53:38;;;;;;;;;;;;;;;22.57;29.76;98709.53;5006336;28;918;-79
2021/09/06 10:56:06;;;;;;;;;;;;;;;22.43;29.64;98721.13;5007243;28;1001;-79
2021/09/06 10:58:33;;;;;;;;;;;;;;;22.43;29.63;98715.47;5006302;28;2005;-79
2021/09/06 11:01:17;;;;;;;;;;;;;;;22.44;29.38;98717.09;5023598;28;1005;-79
2021/09/06 11:03:51;;;;;;;;;;;;;;;22.43;29.37;98715.47;5023049;28;710;-79
2021/09/06 11:06:21;;;;;;;;;;;;;;;22.39;29.45;98715.53;5002662;28;958;-78
2021/09/06 11:08:49;;;;;;;;;;;;;;;22.23;29.75;98712.59;5003215;28;878;-78
2021/09/06 11:11:16;;;;;;;;;;;;;;;22.41;29.28;98707.41;5003703;28;966;-79
2021/09/06 11:13:44;;;;;;;;;;;;;;;22.40;29.48;98710.69;5003498;28;682;-79
2021/09/06 11:16:13;;;;;;;;;;;;;;;22.48;29.26;98714.97;5003273;28;639;-79
2021/09/06 11:18:40;;;;;;;;;;;;;;;22.31;29.32;98711.22;5003100;28;1985;-79
2021/09/06 11:21:10;;;;;;;;;;;;;;;22.28;29.30;98724.25;5003007;28;1001;-79
2021/09/06 11:23:40;;;;;;;;;;;;;;;22.42;28.97;98713.88;4986191;28;845;-79
2021/09/06 11:26:07;;;;;;;;;;;;;;;22.29;29.22;98711.69;5003482;28;646;-79
2021/09/06 11:28:33;;;;;;;;;;;;;;;22.32;29.18;98701.47;5002215;28;924;-79
2021/09/06 11:31:00;;;;;;;;;;;;;;;22.42;29.27;98702.53;5003532;28;1410;-78
2021/09/06 11:33:26;;;;;;;;;;;;;;;22.58;28.71;98699.78;5002908;28;658;-79
2021/09/06 11:35:52;;;;;;;;;;;;;;;22.39;28.90;98709.09;5003575;28;997;-79
2021/09/06 11:38:18;;;;;;;;;;;;;;;22.33;29.21;98703.91;5002761;28;1978;-79
2021/09/06 11:40:56;;;;;;;;;;;;;;;22.34;29.01;98702.66;5002666;28;858;-78
2021/09/06 11:43:23;;;;;;;;;;;;;;;22.39;29.37;98703.41;5002775;28;694;-79
2021/09/06 11:45:48;;;;;;;;;;;;;;;22.38;28.88;98707.47;5002836;28;730;-79
2021/09/06 11:48:14;;;;;;;;;;;;;;;22.26;29.06;98704.03;5002257;28;695;-79
2021/09/06 11:50:40;;;;;;;;;;;;;;;22.31;29.22;98703.53;5002849;28;965;-79
2021/09/06 11:53:09;;;;;;;;;;;;;;;22.31;29.01;98702.72;4985349;28;874;-79
2021/09/06 11:55:35;;;;;;;;;;;;;;;22.23;29.34;98704.91;5003141;28;909;-79
2021/09/06 11:58:10;;;;;;;;;;;;;;;22.32;28.82;98699.44;5002741;28;1967;-78
2021/09/06 12:00:36;;;;;;;;;;;;;;;22.41;29.01;98700.94;5001880;28;865;-79
2021/09/06 12:03:02;;;;;;;;;;;;;;;22.25;29.13;98705.25;5001417;28;789;-79
2021/09/06 12:05:35;;;;;;;;;;;;;;;22.22;29.37;98706.13;5001723;28;960;-79
2021/09/06 12:08:01;;;;;;;;;;;;;;;22.27;29.03;98711.28;5002266;28;858;-79
2021/09/06 12:10:30;;;;;;;;;;;;;;;22.26;28.88;98701.19;5002778;28;990;-79
2021/09/06 12:13:06;;;;;;;;;;;;;;;22.27;28.87;98708.44;5001735;28;699;-77
2021/09/06 12:15:32;;;;;;;;;;;;;;;22.17;29.31;98698.09;5001772;28;676;-79
2021/09/06 12:18:23;;;;;;;;;;;;;;;22.26;28.88;98704.03;5001959;28;1977;-77
2021/09/06 12:20:49;;;;;;;;;;;;;;;22.21;29.18;98704.53;4971846;28;1204;-77
2021/09/06 12:23:29;;;;;;;;;;;;;;;22.25;28.94;98699.59;4980134;28;1227;-79
2021/09/06 12:25:55;;;;;;;;;;;;;;;22.25;28.95;98693.13;4980672;28;1121;-79
2021/09/06 12:28:26;;;;;;;;;;;;;;;22.20;29.13;98685.91;4981277;28;1170;-79
2021/09/06 12:30:56;;;;;;;;;;;;;;;22.16;29.20;98681.53;4964832;28;1152;-78
2021/09/06 12:33:24;;;;;;;;;;;;;;;22.20;28.90;98697.25;4981160;28;1274;-78
2021/09/06 12:35:50;;;;;;;;;;;;;;;22.27;28.92;98696.31;4980711;28;1119;-78
2021/09/06 12:38:15;;;;;;;;;;;;;;;22.16;29.25;98685.16;4980775;28;1907;-78
2021/09/06 12:40:41;;;;;;;;;;;;;;;22.29;29.19;98683.31;4981334;28;1195;-79
2021/09/06 12:43:07;;;;;;;;;;;;;;;22.31;28.85;98697.06;4980638;28;1230;-78
2021/09/06 12:45:32;;;;;;;;;;;;;;;22.19;29.20;98690.00;4981180;28;1222;-77
2021/09/06 12:47:58;;;;;;;;;;;;;;;22.27;28.95;98685.78;4981832;28;1245;-79
2021/09/06 12:50:24;;;;;;;;;;;;;;;22.34;28.71;98690.53;4982053;28;849;-79
2021/09/06 12:52:49;;;;;;;;;;;;;;;22.24;29.18;98680.19;4982095;28;887;-78
2021/09/06 12:55:18;;;;;;;;;;;;;;;22.16;29.42;98696.50;4982169;28;1023;-79
2021/09/06 12:57:43;;;;;;;;;;;;;;;22.12;29.04;98690.09;4981157;28;1073;-79
2021/09/06 13:00:09;;;;;;;;;;;;;;;22.23;29.02;98685.06;4980795;28;1965;-79
2021/09/06 13:02:34;;;;;;;;;;;;;;;22.14;29.18;98684.81;4981569;28;1155;-79
2021/09/06 13:05:00;;;;;;;;;;;;;;;22.08;29.30;98692.19;4985006;28;958;-79
2021/09/06 13:07:25;;;;;;;;;;;;;;;22.12;29.15;98692.94;5001721;28;821;-79